sensor_id;sensor_type;location;lat;lon;timestamp;P1;durP1;ratioP1;P2;durP2;ratioP2
39782;SDS011;25462;51.164;17.100;2024-01-11T00:02:29;316.50;;;109.90;;
39782;SDS011;25462;51.164;17.100;2024-01-11T00:07:36;304.00;;;103.90;;
39782;SDS011;25462;51.164;17.100;2024-01-11T00:12:46;213.60;;;81.20;;
39782;SDS011;25462;51.164;17.100;2024-01-11T00:17:59;292.10;;;106.10;;
39782;SDS011;25462;51.164;17.100;2024-01-11T00:28:45;269.30;;;97.40;;
39782;SDS011;25462;51.164;17.100;2024-01-11T00:33:52;327.90;;;113.30;;
39782;SDS011;25462;51.164;17.100;2024-01-11T00:38:59;246.80;;;92.90;;
39782;SDS011;25462;51.164;17.100;2024-01-11T00:44:15;301.20;;;107.40;;
39782;SDS011;25462;51.164;17.100;2024-01-11T00:49:19;309.10;;;113.30;;
39782;SDS011;25462;51.164;17.100;2024-01-11T00:54:24;303.70;;;109.10;;
39782;SDS011;25462;51.164;17.100;2024-01-11T00:59:33;339.10;;;118.00;;
39782;SDS011;25462;51.164;17.100;2024-01-11T01:04:39;331.80;;;114.60;;
39782;SDS011;25462;51.164;17.100;2024-01-11T01:09:44;280.70;;;99.30;;
39782;SDS011;25462;51.164;17.100;2024-01-11T01:14:57;320.70;;;111.30;;
39782;SDS011;25462;51.164;17.100;2024-01-11T01:26:16;289.40;;;103.70;;
39782;SDS011;25462;51.164;17.100;2024-01-11T01:31:42;301.40;;;107.20;;
39782;SDS011;25462;51.164;17.100;2024-01-11T01:37:05;257.60;;;91.90;;
39782;SDS011;25462;51.164;17.100;2024-01-11T01:42:10;327.50;;;111.40;;
39782;SDS011;25462;51.164;17.100;2024-01-11T01:47:17;325.70;;;112.30;;
39782;SDS011;25462;51.164;17.100;2024-01-11T01:52:22;316.30;;;111.80;;
39782;SDS011;25462;51.164;17.100;2024-01-11T01:57:29;332.00;;;113.70;;
39782;SDS011;25462;51.164;17.100;2024-01-11T02:02:38;316.50;;;111.70;;
39782;SDS011;25462;51.164;17.100;2024-01-11T02:07:48;327.50;;;113.50;;
39782;SDS011;25462;51.164;17.100;2024-01-11T02:12:53;304.60;;;106.60;;
39782;SDS011;25462;51.164;17.100;2024-01-11T02:18:29;270.20;;;95.80;;
39782;SDS011;25462;51.164;17.100;2024-01-11T02:29:35;298.30;;;107.50;;
39782;SDS011;25462;51.164;17.100;2024-01-11T02:34:39;258.60;;;97.40;;
39782;SDS011;25462;51.164;17.100;2024-01-11T02:39:44;251.60;;;88.90;;
39782;SDS011;25462;51.164;17.100;2024-01-11T02:44:49;271.70;;;94.30;;
39782;SDS011;25462;51.164;17.100;2024-01-11T02:49:53;250.30;;;89.40;;
39782;SDS011;25462;51.164;17.100;2024-01-11T02:55:03;285.90;;;99.80;;
39782;SDS011;25462;51.164;17.100;2024-01-11T03:00:22;301.90;;;103.10;;
39782;SDS011;25462;51.164;17.100;2024-01-11T03:05:57;243.40;;;86.50;;
39782;SDS011;25462;51.164;17.100;2024-01-11T03:11:02;291.80;;;100.20;;
39782;SDS011;25462;51.164;17.100;2024-01-11T03:16:31;266.80;;;88.00;;
39782;SDS011;25462;51.164;17.100;2024-01-11T03:21:57;289.60;;;103.30;;
39782;SDS011;25462;51.164;17.100;2024-01-11T03:27:15;312.30;;;109.40;;
39782;SDS011;25462;51.164;17.100;2024-01-11T06:06:28;196.60;;;73.50;;
39782;SDS011;25462;51.164;17.100;2024-01-11T06:11:43;174.00;;;65.30;;
39782;SDS011;25462;51.164;17.100;2024-01-11T06:16:52;157.50;;;60.00;;
39782;SDS011;25462;51.164;17.100;2024-01-11T06:22:11;152.50;;;60.10;;
39782;SDS011;25462;51.164;17.100;2024-01-11T06:27:18;157.50;;;60.90;;
39782;SDS011;25462;51.164;17.100;2024-01-11T06:32:27;158.80;;;61.70;;
39782;SDS011;25462;51.164;17.100;2024-01-11T06:37:35;171.80;;;61.40;;
39782;SDS011;25462;51.164;17.100;2024-01-11T06:42:40;153.20;;;56.70;;
39782;SDS011;25462;51.164;17.100;2024-01-11T06:47:50;141.60;;;54.20;;
39782;SDS011;25462;51.164;17.100;2024-01-11T06:52:54;114.20;;;45.10;;
39782;SDS011;25462;51.164;17.100;2024-01-11T06:58:22;118.80;;;47.00;;
39782;SDS011;25462;51.164;17.100;2024-01-11T07:03:27;116.10;;;44.10;;
39782;SDS011;25462;51.164;17.100;2024-01-11T07:08:35;119.00;;;47.90;;
39782;SDS011;25462;51.164;17.100;2024-01-11T07:13:41;126.50;;;47.90;;
39782;SDS011;25462;51.164;17.100;2024-01-11T07:18:47;114.00;;;44.00;;
39782;SDS011;25462;51.164;17.100;2024-01-11T07:23:52;105.20;;;37.10;;
39782;SDS011;25462;51.164;17.100;2024-01-11T07:29:00;95.10;;;38.30;;
39782;SDS011;25462;51.164;17.100;2024-01-11T07:34:12;93.00;;;35.60;;
39782;SDS011;25462;51.164;17.100;2024-01-11T07:58:11;93.00;;;36.10;;
39782;SDS011;25462;51.164;17.100;2024-01-11T08:24:02;87.20;;;34.30;;
39782;SDS011;25462;51.164;17.100;2024-01-11T08:29:45;84.00;;;35.40;;
39782;SDS011;25462;51.164;17.100;2024-01-11T08:34:51;85.70;;;33.30;;
39782;SDS011;25462;51.164;17.100;2024-01-11T08:40:06;80.90;;;33.00;;
39782;SDS011;25462;51.164;17.100;2024-01-11T08:45:31;84.90;;;31.80;;
39782;SDS011;25462;51.164;17.100;2024-01-11T08:50:35;80.60;;;30.40;;
39782;SDS011;25462;51.164;17.100;2024-01-11T09:14:22;70.00;;;27.70;;
39782;SDS011;25462;51.164;17.100;2024-01-11T09:19:27;63.30;;;26.00;;
39782;SDS011;25462;51.164;17.100;2024-01-11T09:24:31;65.90;;;28.30;;
39782;SDS011;25462;51.164;17.100;2024-01-11T09:29:49;70.80;;;28.10;;
39782;SDS011;25462;51.164;17.100;2024-01-11T09:35:01;65.40;;;28.00;;
39782;SDS011;25462;51.164;17.100;2024-01-11T09:40:08;65.70;;;27.10;;
39782;SDS011;25462;51.164;17.100;2024-01-11T09:45:16;56.10;;;25.50;;
39782;SDS011;25462;51.164;17.100;2024-01-11T09:50:20;58.50;;;24.50;;
39782;SDS011;25462;51.164;17.100;2024-01-11T09:55:27;56.70;;;24.90;;
39782;SDS011;25462;51.164;17.100;2024-01-11T10:00:31;56.50;;;25.20;;
39782;SDS011;25462;51.164;17.100;2024-01-11T10:05:35;51.80;;;22.10;;
39782;SDS011;25462;51.164;17.100;2024-01-11T10:10:40;59.20;;;25.20;;
39782;SDS011;25462;51.164;17.100;2024-01-11T10:16:08;48.40;;;20.40;;
39782;SDS011;25462;51.164;17.100;2024-01-11T10:21:16;59.20;;;24.40;;
39782;SDS011;25462;51.164;17.100;2024-01-11T10:32:49;46.90;;;22.10;;
39782;SDS011;25462;51.164;17.100;2024-01-11T10:38:55;49.30;;;19.60;;
39782;SDS011;25462;51.164;17.100;2024-01-11T10:44:18;50.00;;;21.70;;
39782;SDS011;25462;51.164;17.100;2024-01-11T11:27:00;45.30;;;19.60;;
39782;SDS011;25462;51.164;17.100;2024-01-11T11:32:19;40.50;;;16.90;;
39782;SDS011;25462;51.164;17.100;2024-01-11T11:38:00;40.80;;;19.10;;
39782;SDS011;25462;51.164;17.100;2024-01-11T11:43:09;45.20;;;18.80;;
39782;SDS011;25462;51.164;17.100;2024-01-11T11:54:17;41.40;;;19.20;;
39782;SDS011;25462;51.164;17.100;2024-01-11T11:59:23;55.70;;;22.70;;
39782;SDS011;25462;51.164;17.100;2024-01-11T12:04:31;46.40;;;20.70;;
39782;SDS011;25462;51.164;17.100;2024-01-11T12:09:35;46.90;;;18.00;;
39782;SDS011;25462;51.164;17.100;2024-01-11T12:19:57;45.40;;;21.00;;
39782;SDS011;25462;51.164;17.100;2024-01-11T12:25:01;51.30;;;22.10;;
39782;SDS011;25462;51.164;17.100;2024-01-11T12:30:09;52.20;;;22.40;;
39782;SDS011;25462;51.164;17.100;2024-01-11T12:36:02;54.90;;;23.40;;
39782;SDS011;25462;51.164;17.100;2024-01-11T13:00:26;51.20;;;22.80;;
39782;SDS011;25462;51.164;17.100;2024-01-11T13:19:14;45.70;;;21.00;;
39782;SDS011;25462;51.164;17.100;2024-01-11T13:32:00;48.50;;;21.10;;
39782;SDS011;25462;51.164;17.100;2024-01-11T13:44:52;56.20;;;25.70;;
39782;SDS011;25462;51.164;17.100;2024-01-11T13:56:45;49.00;;;17.50;;
39782;SDS011;25462;51.164;17.100;2024-01-11T14:08:36;49.10;;;20.60;;
39782;SDS011;25462;51.164;17.100;2024-01-11T14:13:43;45.00;;;21.10;;
39782;SDS011;25462;51.164;17.100;2024-01-11T14:19:28;45.20;;;19.20;;
39782;SDS011;25462;51.164;17.100;2024-01-11T14:24:57;48.50;;;20.60;;
39782;SDS011;25462;51.164;17.100;2024-01-11T14:43:49;23.60;;;11.80;;
39782;SDS011;25462;51.164;17.100;2024-01-11T14:55:15;21.90;;;10.70;;
39782;SDS011;25462;51.164;17.100;2024-01-11T15:00:37;31.80;;;14.60;;
39782;SDS011;25462;51.164;17.100;2024-01-11T15:05:52;32.60;;;15.50;;
39782;SDS011;25462;51.164;17.100;2024-01-11T15:18:01;29.10;;;13.40;;
39782;SDS011;25462;51.164;17.100;2024-01-11T15:23:34;30.60;;;14.50;;
39782;SDS011;25462;51.164;17.100;2024-01-11T15:28:52;36.30;;;15.50;;
39782;SDS011;25462;51.164;17.100;2024-01-11T15:33:58;36.90;;;15.90;;
39782;SDS011;25462;51.164;17.100;2024-01-11T15:39:46;35.40;;;15.90;;
39782;SDS011;25462;51.164;17.100;2024-01-11T15:44:53;33.40;;;15.40;;
39782;SDS011;25462;51.164;17.100;2024-01-11T15:50:41;35.00;;;15.70;;
39782;SDS011;25462;51.164;17.100;2024-01-11T15:56:09;37.30;;;16.70;;
39782;SDS011;25462;51.164;17.100;2024-01-11T16:01:38;37.90;;;16.50;;
39782;SDS011;25462;51.164;17.100;2024-01-11T16:13:47;32.10;;;14.10;;
39782;SDS011;25462;51.164;17.100;2024-01-11T16:19:11;27.10;;;11.70;;
39782;SDS011;25462;51.164;17.100;2024-01-11T16:24:48;33.40;;;14.40;;
39782;SDS011;25462;51.164;17.100;2024-01-11T16:30:08;37.50;;;15.70;;
39782;SDS011;25462;51.164;17.100;2024-01-11T16:41:39;33.50;;;15.80;;
39782;SDS011;25462;51.164;17.100;2024-01-11T16:47:06;25.20;;;10.60;;
39782;SDS011;25462;51.164;17.100;2024-01-11T16:52:14;27.40;;;12.80;;
39782;SDS011;25462;51.164;17.100;2024-01-11T17:03:44;41.70;;;16.40;;
39782;SDS011;25462;51.164;17.100;2024-01-11T17:16:39;35.40;;;14.80;;
39782;SDS011;25462;51.164;17.100;2024-01-11T17:22:36;28.90;;;12.40;;
39782;SDS011;25462;51.164;17.100;2024-01-11T17:28:09;30.50;;;12.10;;
39782;SDS011;25462;51.164;17.100;2024-01-11T17:34:19;28.10;;;12.50;;
39782;SDS011;25462;51.164;17.100;2024-01-11T17:39:34;26.10;;;12.60;;
39782;SDS011;25462;51.164;17.100;2024-01-11T17:44:40;23.60;;;12.10;;
39782;SDS011;25462;51.164;17.100;2024-01-11T17:49:47;27.40;;;12.00;;
39782;SDS011;25462;51.164;17.100;2024-01-11T17:55:02;26.60;;;12.60;;
39782;SDS011;25462;51.164;17.100;2024-01-11T18:00:30;31.20;;;13.00;;
39782;SDS011;25462;51.164;17.100;2024-01-11T18:11:33;29.20;;;14.30;;
39782;SDS011;25462;51.164;17.100;2024-01-11T18:17:38;28.50;;;13.70;;
39782;SDS011;25462;51.164;17.100;2024-01-11T18:23:26;31.20;;;13.80;;
39782;SDS011;25462;51.164;17.100;2024-01-11T18:28:34;28.70;;;13.60;;
39782;SDS011;25462;51.164;17.100;2024-01-11T18:33:44;27.60;;;12.90;;
39782;SDS011;25462;51.164;17.100;2024-01-11T18:39:19;23.30;;;11.70;;
39782;SDS011;25462;51.164;17.100;2024-01-11T18:45:05;26.30;;;11.80;;
39782;SDS011;25462;51.164;17.100;2024-01-11T18:50:12;23.60;;;12.50;;
39782;SDS011;25462;51.164;17.100;2024-01-11T18:55:40;25.00;;;13.40;;
39782;SDS011;25462;51.164;17.100;2024-01-11T19:06:39;28.40;;;13.80;;
39782;SDS011;25462;51.164;17.100;2024-01-11T19:11:59;29.80;;;13.40;;
39782;SDS011;25462;51.164;17.100;2024-01-11T19:17:08;27.50;;;14.00;;
39782;SDS011;25462;51.164;17.100;2024-01-11T19:28:44;33.30;;;14.70;;
39782;SDS011;25462;51.164;17.100;2024-01-11T19:34:25;31.40;;;14.70;;
39782;SDS011;25462;51.164;17.100;2024-01-11T19:39:40;35.20;;;16.10;;
39782;SDS011;25462;51.164;17.100;2024-01-11T19:50:36;34.90;;;16.70;;
39782;SDS011;25462;51.164;17.100;2024-01-11T19:55:41;39.20;;;18.20;;
39782;SDS011;25462;51.164;17.100;2024-01-11T20:07:34;37.50;;;17.50;;
39782;SDS011;25462;51.164;17.100;2024-01-11T20:25:17;37.80;;;17.70;;
39782;SDS011;25462;51.164;17.100;2024-01-11T20:36:42;35.80;;;16.40;;
39782;SDS011;25462;51.164;17.100;2024-01-11T20:53:41;36.60;;;17.50;;
39782;SDS011;25462;51.164;17.100;2024-01-11T20:58:46;37.30;;;16.90;;
39782;SDS011;25462;51.164;17.100;2024-01-11T21:04:08;37.70;;;18.00;;
39782;SDS011;25462;51.164;17.100;2024-01-11T21:10:08;36.10;;;17.20;;
39782;SDS011;25462;51.164;17.100;2024-01-11T21:15:19;40.50;;;18.40;;
39782;SDS011;25462;51.164;17.100;2024-01-11T21:20:25;40.00;;;17.60;;
39782;SDS011;25462;51.164;17.100;2024-01-11T21:25:31;39.70;;;17.80;;
39782;SDS011;25462;51.164;17.100;2024-01-11T21:30:52;34.70;;;17.30;;
39782;SDS011;25462;51.164;17.100;2024-01-11T21:36:03;41.20;;;18.80;;
39782;SDS011;25462;51.164;17.100;2024-01-11T21:42:08;32.40;;;16.80;;
39782;SDS011;25462;51.164;17.100;2024-01-11T21:47:16;35.70;;;17.10;;
39782;SDS011;25462;51.164;17.100;2024-01-11T21:52:30;38.90;;;18.40;;
39782;SDS011;25462;51.164;17.100;2024-01-11T21:57:57;32.60;;;16.00;;
39782;SDS011;25462;51.164;17.100;2024-01-11T22:03:19;39.70;;;17.80;;
39782;SDS011;25462;51.164;17.100;2024-01-11T22:08:25;33.00;;;14.20;;
39782;SDS011;25462;51.164;17.100;2024-01-11T22:14:04;35.40;;;16.80;;
39782;SDS011;25462;51.164;17.100;2024-01-11T22:19:29;37.30;;;17.00;;
39782;SDS011;25462;51.164;17.100;2024-01-11T22:25:03;39.80;;;17.40;;
39782;SDS011;25462;51.164;17.100;2024-01-11T22:30:23;39.40;;;17.70;;
39782;SDS011;25462;51.164;17.100;2024-01-11T22:41:36;37.80;;;18.20;;
39782;SDS011;25462;51.164;17.100;2024-01-11T22:47:08;37.70;;;17.40;;
39782;SDS011;25462;51.164;17.100;2024-01-11T22:52:28;36.30;;;16.50;;
39782;SDS011;25462;51.164;17.100;2024-01-11T22:57:45;39.00;;;17.00;;
39782;SDS011;25462;51.164;17.100;2024-01-11T23:28:13;36.20;;;16.30;;
